Time;durP1;ratioP1;P1;durP2;ratioP2;P2;SDS_P1;SDS_P2;PMS_P1;PMS_P2;Temp;Humidity;BMP_temperature;BMP_pressure;BME280_temperature;BME280_humidity;BME280_pressure;Samples;Min_cycle;Max_cycle;Signal;HPM_P1;HPM_P2
2024/01/10 00:00:38;;;;;;;1999.90;999.90;;;;;;;;;;4963951;28;20043;-82
2024/01/10 00:03:04;;;;;;;1999.90;999.90;;;;;;;;;;4965543;28;20552;-82
2024/01/10 00:05:31;;;;;;;1999.90;999.90;;;;;;;;;;4968106;28;20405;-82
2024/01/10 00:07:59;;;;;;;1999.90;999.90;;;;;;;;;;4964542;28;20094;-82
2024/01/10 00:10:26;;;;;;;1999.90;999.90;;;;;;;;;;4968799;28;20059;-82
2024/01/10 00:12:52;;;;;;;1999.90;999.90;;;;;;;;;;4964798;28;20049;-83
2024/01/10 00:15:19;;;;;;;1999.90;999.90;;;;;;;;;;4957170;28;20508;-84
2024/01/10 00:17:45;;;;;;;1999.90;999.90;;;;;;;;;;4963915;28;20135;-84
2024/01/10 00:20:12;;;;;;;1999.90;999.90;;;;;;;;;;4961394;28;20054;-86
2024/01/10 00:22:39;;;;;;;1999.90;999.90;;;;;;;;;;4964326;28;20085;-82
2024/01/10 00:25:07;;;;;;;1999.90;999.90;;;;;;;;;;4965248;28;20512;-82
2024/01/10 00:27:34;;;;;;;1999.90;999.90;;;;;;;;;;4962445;28;20046;-83
2024/01/10 00:30:00;;;;;;;1999.90;999.90;;;;;;;;;;4966994;28;20057;-82
2024/01/10 00:32:27;;;;;;;1999.90;999.90;;;;;;;;;;4962802;28;20505;-85
2024/01/10 00:34:53;;;;;;;1999.90;999.90;;;;;;;;;;4968136;28;20047;-84
2024/01/10 00:37:20;;;;;;;1999.90;999.90;;;;;;;;;;4964809;28;20043;-82
2024/01/10 00:39:46;;;;;;;1999.90;999.90;;;;;;;;;;4966535;28;20665;-84
2024/01/10 00:42:14;;;;;;;1999.90;999.90;;;;;;;;;;4964100;28;20054;-83
2024/01/10 00:44:41;;;;;;;1999.90;999.90;;;;;;;;;;4963245;28;20058;-83
2024/01/10 00:47:07;;;;;;;1999.90;999.90;;;;;;;;;;4971112;28;20497;-84
2024/01/10 00:49:34;;;;;;;1999.90;999.90;;;;;;;;;;4964477;28;20405;-85
2024/01/10 00:52:00;;;;;;;1999.90;999.90;;;;;;;;;;4965273;28;20782;-82
2024/01/10 00:54:27;;;;;;;1999.90;999.90;;;;;;;;;;4961019;28;20053;-84
2024/01/10 00:56:53;;;;;;;1999.90;999.90;;;;;;;;;;4969869;28;20054;-82
2024/01/10 00:59:21;;;;;;;1999.90;999.90;;;;;;;;;;4966068;28;20050;-80
2024/01/10 01:01:48;;;;;;;1999.90;999.90;;;;;;;;;;4965537;28;20134;-83
2024/01/10 01:04:14;;;;;;;1999.90;999.90;;;;;;;;;;4970249;28;20055;-82
2024/01/10 01:06:41;;;;;;;1999.90;999.90;;;;;;;;;;4963102;28;20050;-83
2024/01/10 01:09:07;;;;;;;1999.90;999.90;;;;;;;;;;4963214;28;20054;-83
2024/01/10 01:11:34;;;;;;;1999.90;999.90;;;;;;;;;;4960271;28;20051;-85
2024/01/10 01:13:59;;;;;;;1999.90;999.90;;;;;;;;;;4966862;28;20043;-83
2024/01/10 01:16:27;;;;;;;1999.90;999.90;;;;;;;;;;4968079;28;20053;-82
2024/01/10 01:18:54;;;;;;;1999.90;999.90;;;;;;;;;;4963033;28;20414;-82
2024/01/10 01:21:22;;;;;;;1999.90;999.90;;;;;;;;;;4961771;28;20046;-83
2024/01/10 01:23:48;;;;;;;1999.90;999.90;;;;;;;;;;4964762;28;20129;-84
2024/01/10 01:26:15;;;;;;;1999.90;999.90;;;;;;;;;;4966351;28;20054;-83
2024/01/10 01:28:41;;;;;;;1999.90;999.90;;;;;;;;;;4963661;28;20054;-82
2024/01/10 01:31:08;;;;;;;1999.90;999.90;;;;;;;;;;4960756;28;20052;-83
2024/01/10 01:33:36;;;;;;;1999.90;999.90;;;;;;;;;;4963011;28;20404;-83
2024/01/10 01:36:03;;;;;;;1999.90;999.90;;;;;;;;;;4968101;28;20498;-84
2024/01/10 01:38:30;;;;;;;1999.90;999.90;;;;;;;;;;4963799;28;20549;-82
2024/01/10 01:40:56;;;;;;;1999.90;999.90;;;;;;;;;;4958164;28;20058;-83
2024/01/10 01:43:24;;;;;;;1999.90;999.90;;;;;;;;;;4964904;28;20047;-83
2024/01/10 01:45:52;;;;;;;1999.90;999.90;;;;;;;;;;4960177;28;20051;-83
2024/01/10 01:48:19;;;;;;;1999.90;999.90;;;;;;;;;;4960386;28;20050;-85
2024/01/10 01:50:48;;;;;;;1999.90;999.90;;;;;;;;;;4963646;28;20415;-83
2024/01/10 01:53:15;;;;;;;1999.90;999.90;;;;;;;;;;4960114;28;20043;-83
2024/01/10 01:55:42;;;;;;;1999.90;999.90;;;;;;;;;;4963149;28;20053;-85
2024/01/10 01:58:13;;;;;;;1999.90;999.90;;;;;;;;;;4961665;28;20777;-84
2024/01/10 02:00:40;;;;;;;1999.90;999.90;;;;;;;;;;4955132;28;20552;-83
2024/01/10 02:03:06;;;;;;;1999.90;999.90;;;;;;;;;;4967341;28;20058;-82
2024/01/10 02:05:33;;;;;;;1999.90;999.90;;;;;;;;;;4960664;28;20074;-84
2024/01/10 02:08:01;;;;;;;1999.90;999.90;;;;;;;;;;4965101;28;20083;-83
2024/01/10 02:10:27;;;;;;;1999.90;999.90;;;;;;;;;;4966641;28;20055;-82
2024/01/10 02:12:54;;;;;;;1999.90;999.90;;;;;;;;;;4962465;28;20079;-84
2024/01/10 02:15:20;;;;;;;1999.90;999.90;;;;;;;;;;4967319;28;20051;-83
2024/01/10 02:17:47;;;;;;;1999.90;999.90;;;;;;;;;;4968347;28;20047;-87
2024/01/10 02:20:16;;;;;;;1999.90;999.90;;;;;;;;;;4970032;28;20051;-84
2024/01/10 02:22:43;;;;;;;1999.90;999.90;;;;;;;;;;4965781;28;20051;-82
2024/01/10 02:25:11;;;;;;;1999.90;999.90;;;;;;;;;;4971648;28;20051;-84
2024/01/10 02:27:38;;;;;;;1999.90;999.90;;;;;;;;;;4966672;28;20047;-83
2024/01/10 02:30:06;;;;;;;1999.90;999.90;;;;;;;;;;4967139;28;20054;-83
2024/01/10 02:32:33;;;;;;;1999.90;999.90;;;;;;;;;;4965071;28;20058;-84
2024/01/10 02:35:00;;;;;;;1999.90;999.90;;;;;;;;;;4968074;28;20043;-83
2024/01/10 02:37:26;;;;;;;1999.90;999.90;;;;;;;;;;4968188;28;20047;-83
2024/01/10 02:39:53;;;;;;;1999.90;999.90;;;;;;;;;;4969389;28;20093;-84
2024/01/10 02:42:21;;;;;;;1999.90;999.90;;;;;;;;;;4964408;28;20057;-84
2024/01/10 02:44:47;;;;;;;1999.90;999.90;;;;;;;;;;4966724;28;20059;-85
2024/01/10 02:47:14;;;;;;;1999.90;999.90;;;;;;;;;;4965717;28;20050;-84
2024/01/10 02:49:40;;;;;;;1999.90;999.90;;;;;;;;;;4964722;28;20049;-84
2024/01/10 02:52:07;;;;;;;1999.90;999.90;;;;;;;;;;4970186;28;20055;-86
2024/01/10 02:54:34;;;;;;;1999.90;999.90;;;;;;;;;;4974884;28;20051;-84
2024/01/10 02:57:00;;;;;;;1999.90;999.90;;;;;;;;;;4975277;28;20053;-86
2024/01/10 02:59:28;;;;;;;1999.90;999.90;;;;;;;;;;4973045;28;20047;-85
2024/01/10 03:01:54;;;;;;;1999.90;999.90;;;;;;;;;;4973269;28;20057;-84
2024/01/10 03:04:21;;;;;;;1999.90;999.90;;;;;;;;;;4973175;28;20059;-84
2024/01/10 03:06:47;;;;;;;1999.90;999.90;;;;;;;;;;4965242;28;20050;-86
2024/01/10 03:09:14;;;;;;;1999.90;999.90;;;;;;;;;;4966825;28;20049;-82
2024/01/10 03:11:40;;;;;;;1999.90;999.90;;;;;;;;;;4964729;28;20054;-84
2024/01/10 03:14:09;;;;;;;1999.90;999.90;;;;;;;;;;4964580;28;20057;-86
2024/01/10 03:16:37;;;;;;;1999.90;999.90;;;;;;;;;;4971942;28;20062;-84
2024/01/10 03:19:03;;;;;;;1999.90;999.90;;;;;;;;;;4968372;28;20061;-86
2024/01/10 03:21:33;;;;;;;1999.90;999.90;;;;;;;;;;4968528;28;20576;-83
2024/01/10 03:24:01;;;;;;;1999.90;999.90;;;;;;;;;;4955240;28;20592;-84
2024/01/10 03:26:30;;;;;;;1999.90;999.90;;;;;;;;;;4961293;28;20051;-83
2024/01/10 03:28:57;;;;;;;1999.90;999.90;;;;;;;;;;4962721;28;20054;-83
2024/01/10 03:31:23;;;;;;;1999.90;999.90;;;;;;;;;;4962569;28;20051;-83
2024/01/10 03:33:51;;;;;;;1999.90;999.90;;;;;;;;;;4962165;28;20058;-84
2024/01/10 03:36:18;;;;;;;1999.90;999.90;;;;;;;;;;4971560;28;20051;-84
2024/01/10 03:38:45;;;;;;;1999.90;999.90;;;;;;;;;;4964196;28;20043;-84
2024/01/10 03:41:14;;;;;;;1999.90;999.90;;;;;;;;;;4958110;28;20564;-84
2024/01/10 03:43:40;;;;;;;1999.90;999.90;;;;;;;;;;4965261;28;20224;-84
2024/01/10 03:46:07;;;;;;;1999.90;999.90;;;;;;;;;;4965414;28;20057;-85
2024/01/10 03:48:33;;;;;;;1999.90;999.90;;;;;;;;;;4955960;28;20043;-86
2024/01/10 03:51:05;;;;;;;1999.90;999.90;;;;;;;;;;4974873;28;20046;-84
2024/01/10 03:53:31;;;;;;;1999.90;999.90;;;;;;;;;;4968365;28;20051;-83
2024/01/10 03:55:58;;;;;;;1999.90;999.90;;;;;;;;;;4972862;28;20061;-86
2024/01/10 03:58:25;;;;;;;1999.90;999.90;;;;;;;;;;4968976;28;20057;-83
2024/01/10 04:00:51;;;;;;;1999.90;999.90;;;;;;;;;;4971110;28;20046;-84
2024/01/10 04:03:18;;;;;;;1999.90;999.90;;;;;;;;;;4975078;28;20043;-84
2024/01/10 04:05:44;;;;;;;1999.90;999.90;;;;;;;;;;4973377;28;20142;-84
2024/01/10 04:08:12;;;;;;;1999.90;999.90;;;;;;;;;;4967023;28;20047;-84
2024/01/10 04:10:39;;;;;;;1999.90;999.90;;;;;;;;;;4962890;28;20066;-83
2024/01/10 04:13:05;;;;;;;1999.90;999.90;;;;;;;;;;4964863;28;20050;-84
2024/01/10 04:15:32;;;;;;;1999.90;999.90;;;;;;;;;;4955981;28;20061;-88
2024/01/10 04:17:58;;;;;;;1999.90;999.90;;;;;;;;;;4969351;28;20126;-86
2024/01/10 04:20:25;;;;;;;1999.90;999.90;;;;;;;;;;4968182;28;20572;-85
2024/01/10 04:22:51;;;;;;;1999.90;999.90;;;;;;;;;;4967603;28;20126;-84
2024/01/10 04:25:20;;;;;;;1999.90;999.90;;;;;;;;;;4968377;28;20058;-89
2024/01/10 04:27:50;;;;;;;1999.90;999.90;;;;;;;;;;4963679;28;20042;-85
2024/01/10 04:30:16;;;;;;;1999.90;999.90;;;;;;;;;;4965064;28;20047;-84
2024/01/10 04:32:43;;;;;;;1999.90;999.90;;;;;;;;;;4960719;28;20047;-86
2024/01/10 04:35:10;;;;;;;1999.90;999.90;;;;;;;;;;4966723;28;20422;-84
2024/01/10 04:37:36;;;;;;;1999.90;999.90;;;;;;;;;;4964172;28;20098;-85
2024/01/10 04:40:03;;;;;;;1999.90;999.90;;;;;;;;;;4970014;28;20060;-84
2024/01/10 04:42:31;;;;;;;1999.90;999.90;;;;;;;;;;4970641;28;20051;-83
2024/01/10 04:44:58;;;;;;;1999.90;999.90;;;;;;;;;;4963491;28;20413;-85
2024/01/10 04:47:24;;;;;;;1999.90;999.90;;;;;;;;;;4969037;28;20054;-85
2024/01/10 04:50:10;;;;;;;1999.90;999.90;;;;;;;;;;4958795;28;20054;-84
2024/01/10 04:52:36;;;;;;;1999.90;999.90;;;;;;;;;;4960104;28;20130;-84
2024/01/10 04:55:05;;;;;;;1999.90;999.90;;;;;;;;;;4965609;28;20057;-84
2024/01/10 04:57:33;;;;;;;1999.90;999.90;;;;;;;;;;4964568;28;20051;-86
2024/01/10 05:00:00;;;;;;;1999.90;999.90;;;;;;;;;;4958144;28;20046;-84
2024/01/10 05:02:27;;;;;;;1999.90;999.90;;;;;;;;;;4957162;28;20051;-84
2024/01/10 05:04:54;;;;;;;1999.90;999.90;;;;;;;;;;4969439;28;20476;-85
2024/01/10 05:07:21;;;;;;;1999.90;999.90;;;;;;;;;;4969692;28;20469;-85
2024/01/10 05:09:48;;;;;;;1999.90;999.90;;;;;;;;;;4964536;28;20607;-85
2024/01/10 05:12:14;;;;;;;1999.90;999.90;;;;;;;;;;4962608;28;20047;-85
2024/01/10 05:14:42;;;;;;;1999.90;999.90;;;;;;;;;;4963868;28;20053;-85
2024/01/10 05:17:09;;;;;;;1999.90;999.90;;;;;;;;;;4967888;28;20052;-85
2024/01/10 05:19:48;;;;;;;1999.90;999.90;;;;;;;;;;4960995;28;20046;-86
2024/01/10 05:22:14;;;;;;;1999.90;999.90;;;;;;;;;;4965311;28;20055;-84
2024/01/10 05:24:41;;;;;;;1999.90;999.90;;;;;;;;;;4967339;28;20399;-86
2024/01/10 05:27:07;;;;;;;1999.90;999.90;;;;;;;;;;4963330;28;20052;-85
2024/01/10 05:29:34;;;;;;;1999.90;999.90;;;;;;;;;;4968901;28;20055;-86
2024/01/10 05:32:02;;;;;;;1999.90;999.90;;;;;;;;;;4959454;28;20057;-85
2024/01/10 05:34:28;;;;;;;1999.90;999.90;;;;;;;;;;4963156;28;20134;-85
2024/01/10 05:36:55;;;;;;;1999.90;999.90;;;;;;;;;;4964251;28;20396;-84
2024/01/10 05:39:22;;;;;;;1999.90;999.90;;;;;;;;;;4968015;28;20082;-84
2024/01/10 05:41:48;;;;;;;1999.90;999.90;;;;;;;;;;4962533;28;20065;-85
2024/01/10 05:44:15;;;;;;;1999.90;999.90;;;;;;;;;;4964141;28;20048;-88
2024/01/10 05:46:41;;;;;;;1999.90;999.90;;;;;;;;;;4959438;28;20077;-85
2024/01/10 05:49:24;;;;;;;1999.90;999.90;;;;;;;;;;4966776;28;20047;-85
2024/01/10 05:51:51;;;;;;;1999.90;999.90;;;;;;;;;;4971558;28;20047;-85
2024/01/10 05:54:18;;;;;;;1999.90;999.90;;;;;;;;;;4970020;28;20580;-86
2024/01/10 05:56:45;;;;;;;1999.90;999.90;;;;;;;;;;4974172;28;20043;-87
2024/01/10 05:59:12;;;;;;;1999.90;999.90;;;;;;;;;;4973889;28;20051;-85
2024/01/10 06:01:39;;;;;;;1999.90;999.90;;;;;;;;;;4966907;28;20481;-85
2024/01/10 06:04:06;;;;;;;1999.90;999.90;;;;;;;;;;4966650;28;20537;-87
2024/01/10 06:06:34;;;;;;;1999.90;999.90;;;;;;;;;;4965678;28;20524;-87
2024/01/10 06:09:01;;;;;;;1999.90;999.90;;;;;;;;;;4970704;28;20047;-86
2024/01/10 06:11:29;;;;;;;1999.90;999.90;;;;;;;;;;4969740;28;20050;-86
2024/01/10 06:13:57;;;;;;;1999.90;999.90;;;;;;;;;;4966476;28;20051;-87
2024/01/10 06:16:24;;;;;;;1999.90;999.90;;;;;;;;;;4964022;28;20051;-86
2024/01/10 06:18:50;;;;;;;1999.90;999.90;;;;;;;;;;4959721;28;20066;-88
2024/01/10 06:21:17;;;;;;;1999.90;999.90;;;;;;;;;;4963812;28;20138;-87
2024/01/10 06:23:45;;;;;;;1999.90;999.90;;;;;;;;;;4971876;28;20086;-87
2024/01/10 06:26:12;;;;;;;1999.90;999.90;;;;;;;;;;4966029;28;20054;-87
2024/01/10 06:28:38;;;;;;;1999.90;999.90;;;;;;;;;;4963717;28;20047;-86
2024/01/10 06:31:05;;;;;;;1999.90;999.90;;;;;;;;;;4963656;28;20055;-86
2024/01/10 06:33:32;;;;;;;1999.90;999.90;;;;;;;;;;4967580;28;20055;-87
2024/01/10 06:35:58;;;;;;;1999.90;999.90;;;;;;;;;;4968087;28;20055;-87
2024/01/10 06:38:28;;;;;;;1999.90;999.90;;;;;;;;;;4965020;28;20134;-87
2024/01/10 06:40:56;;;;;;;1999.90;999.90;;;;;;;;;;4967488;28;20547;-88
2024/01/10 06:43:23;;;;;;;1999.90;999.90;;;;;;;;;;4961634;28;20054;-87
2024/01/10 06:45:50;;;;;;;1999.90;999.90;;;;;;;;;;4965278;28;20058;-84
2024/01/10 06:48:16;;;;;;;1999.90;999.90;;;;;;;;;;4965615;28;20077;-85
2024/01/10 06:50:44;;;;;;;1999.90;999.90;;;;;;;;;;4970036;28;20047;-84
2024/01/10 06:53:10;;;;;;;1999.90;999.90;;;;;;;;;;4962392;28;20137;-85
2024/01/10 06:55:37;;;;;;;1999.90;999.90;;;;;;;;;;4971180;28;20049;-86
2024/01/10 06:58:06;;;;;;;1999.90;999.90;;;;;;;;;;4960106;28;20102;-87
2024/01/10 07:00:32;;;;;;;1999.90;999.90;;;;;;;;;;4958890;28;20130;-86
2024/01/10 07:03:02;;;;;;;1999.90;999.90;;;;;;;;;;4958116;28;20053;-85
2024/01/10 07:05:28;;;;;;;1999.90;999.90;;;;;;;;;;4960368;28;20057;-85
2024/01/10 07:07:55;;;;;;;1999.90;999.90;;;;;;;;;;4967458;28;20529;-86
2024/01/10 07:10:25;;;;;;;1999.90;999.90;;;;;;;;;;4971999;28;20043;-84
2024/01/10 07:12:52;;;;;;;1999.90;999.90;;;;;;;;;;4961740;28;20580;-86
2024/01/10 07:15:20;;;;;;;1999.90;999.90;;;;;;;;;;4969438;28;20051;-85
2024/01/10 07:17:47;;;;;;;1999.90;999.90;;;;;;;;;;4962253;28;20391;-89
2024/01/10 07:20:14;;;;;;;1999.90;999.90;;;;;;;;;;4962523;28;20063;-86
2024/01/10 07:22:41;;;;;;;1999.90;999.90;;;;;;;;;;4968998;28;20512;-85
2024/01/10 07:25:08;;;;;;;1999.90;999.90;;;;;;;;;;4964379;28;20506;-86
2024/01/10 07:27:37;;;;;;;1999.90;999.90;;;;;;;;;;4962285;28;20051;-86
2024/01/10 07:30:04;;;;;;;1999.90;999.90;;;;;;;;;;4966413;28;20062;-84
2024/01/10 07:32:32;;;;;;;1999.90;999.90;;;;;;;;;;4967945;28;20138;-84
2024/01/10 07:34:59;;;;;;;1999.90;999.90;;;;;;;;;;4974975;28;20046;-85
2024/01/10 07:37:25;;;;;;;1999.90;999.90;;;;;;;;;;4971279;28;20053;-85
2024/01/10 07:39:54;;;;;;;1999.90;999.90;;;;;;;;;;4961122;28;20055;-87
2024/01/10 07:42:20;;;;;;;1999.90;999.90;;;;;;;;;;4968129;28;20107;-85
2024/01/10 07:44:47;;;;;;;1999.90;999.90;;;;;;;;;;4956918;29;20073;-85
2024/01/10 07:47:16;;;;;;;1999.90;999.90;;;;;;;;;;4965619;28;20055;-85
2024/01/10 07:49:44;;;;;;;1999.90;999.90;;;;;;;;;;4967683;28;20042;-86
2024/01/10 07:52:11;;;;;;;1999.90;999.90;;;;;;;;;;4960457;28;20047;-85
2024/01/10 07:54:37;;;;;;;1999.90;999.90;;;;;;;;;;4972785;28;20055;-84
2024/01/10 07:57:06;;;;;;;1999.90;999.90;;;;;;;;;;4964553;28;20049;-87
2024/01/10 07:59:33;;;;;;;1999.90;999.90;;;;;;;;;;4976252;28;20055;-86
2024/01/10 08:02:01;;;;;;;1999.90;999.90;;;;;;;;;;4975864;28;20055;-86
2024/01/10 08:04:28;;;;;;;1999.90;999.90;;;;;;;;;;4976186;28;20046;-86
2024/01/10 08:06:57;;;;;;;1999.90;999.90;;;;;;;;;;4976394;28;20051;-85
2024/01/10 08:09:24;;;;;;;1999.90;999.90;;;;;;;;;;4968005;28;20146;-86
2024/01/10 08:11:50;;;;;;;1999.90;999.90;;;;;;;;;;4959322;28;20051;-86
2024/01/10 08:14:17;;;;;;;1999.90;999.90;;;;;;;;;;4965033;28;20060;-87
2024/01/10 08:16:44;;;;;;;1999.90;999.90;;;;;;;;;;4971935;28;20051;-87
2024/01/10 08:19:11;;;;;;;1999.90;999.90;;;;;;;;;;4965091;28;20113;-87
2024/01/10 08:21:37;;;;;;;1999.90;999.90;;;;;;;;;;4961913;28;20098;-88
2024/01/10 08:24:07;;;;;;;1999.90;999.90;;;;;;;;;;4969376;28;20049;-87
2024/01/10 08:26:33;;;;;;;1999.90;999.90;;;;;;;;;;4970890;28;20046;-86
2024/01/10 08:29:00;;;;;;;1999.90;999.90;;;;;;;;;;4973121;28;20142;-85
2024/01/10 08:31:26;;;;;;;1999.90;999.90;;;;;;;;;;4957370;28;20128;-86
2024/01/10 08:33:53;;;;;;;1999.90;999.90;;;;;;;;;;4965933;28;20055;-87
2024/01/10 08:36:20;;;;;;;1999.90;999.90;;;;;;;;;;4974850;28;20053;-86
2024/01/10 08:38:46;;;;;;;1999.90;999.90;;;;;;;;;;4967076;28;20126;-86
2024/01/10 08:41:14;;;;;;;1999.90;999.90;;;;;;;;;;4975045;28;20053;-86
2024/01/10 08:43:41;;;;;;;1999.90;999.90;;;;;;;;;;4966455;28;20053;-87
2024/01/10 08:46:12;;;;;;;1999.90;999.90;;;;;;;;;;4973159;28;20047;-86
2024/01/10 08:48:38;;;;;;;1999.90;999.90;;;;;;;;;;4968319;28;20053;-86
2024/01/10 08:51:16;;;;;;;1999.90;999.90;;;;;;;;;;4974450;28;20085;-86
2024/01/10 08:53:43;;;;;;;1999.90;999.90;;;;;;;;;;4970166;28;20450;-86
2024/01/10 08:56:09;;;;;;;1999.90;999.90;;;;;;;;;;4959597;28;20051;-86
2024/01/10 08:58:38;;;;;;;1999.90;999.90;;;;;;;;;;4973864;28;20504;-87
2024/01/10 09:01:05;;;;;;;1999.90;999.90;;;;;;;;;;4958930;28;20130;-87
2024/01/10 09:03:31;;;;;;;1999.90;999.90;;;;;;;;;;4969353;28;20516;-88
2024/01/10 09:05:58;;;;;;;1999.90;999.90;;;;;;;;;;4965608;28;20489;-87
2024/01/10 09:08:24;;;;;;;1999.90;999.90;;;;;;;;;;4966820;28;20081;-87
2024/01/10 09:10:51;;;;;;;1999.90;999.90;;;;;;;;;;4960071;28;20557;-87
2024/01/10 09:13:18;;;;;;;1999.90;999.90;;;;;;;;;;4969228;28;20055;-87
2024/01/10 09:15:46;;;;;;;1999.90;999.90;;;;;;;;;;4972271;28;20051;-87
2024/01/10 09:18:12;;;;;;;1999.90;999.90;;;;;;;;;;4976517;28;20070;-90
2024/01/10 09:20:39;;;;;;;1999.90;999.90;;;;;;;;;;4973112;28;20043;-88
2024/01/10 09:23:05;;;;;;;1999.90;999.90;;;;;;;;;;4974848;28;20058;-88
2024/01/10 09:25:32;;;;;;;1999.90;999.90;;;;;;;;;;4969304;28;20078;-88
2024/01/10 09:27:59;;;;;;;1999.90;999.90;;;;;;;;;;4964359;28;20565;-87
2024/01/10 09:30:25;;;;;;;1999.90;999.90;;;;;;;;;;4966466;28;20055;-88
2024/01/10 09:32:53;;;;;;;1999.90;999.90;;;;;;;;;;4970098;28;20580;-88
2024/01/10 09:35:20;;;;;;;1999.90;999.90;;;;;;;;;;4970891;28;20057;-88
2024/01/10 09:37:46;;;;;;;1999.90;999.90;;;;;;;;;;4972973;28;20062;-89
2024/01/10 09:40:15;;;;;;;1999.90;999.90;;;;;;;;;;4970892;28;20061;-89
2024/01/10 09:42:42;;;;;;;1999.90;999.90;;;;;;;;;;4962689;28;20477;-88
2024/01/10 09:45:11;;;;;;;1999.90;999.90;;;;;;;;;;4976619;28;20043;-88
2024/01/10 09:47:40;;;;;;;1999.90;999.90;;;;;;;;;;4968477;28;20051;-88
2024/01/10 09:50:10;;;;;;;1999.90;999.90;;;;;;;;;;4968312;28;20512;-90
2024/01/10 09:52:43;;;;;;;1999.90;999.90;;;;;;;;;;4973145;28;20059;-89
2024/01/10 09:55:09;;;;;;;1999.90;999.90;;;;;;;;;;4962597;28;20057;-90
2024/01/10 09:57:36;;;;;;;1999.90;999.90;;;;;;;;;;4974223;28;20396;-89
2024/01/10 10:00:10;;;;;;;1999.90;999.90;;;;;;;;;;4970383;28;20058;-90
2024/01/10 10:02:39;;;;;;;1999.90;999.90;;;;;;;;;;4965857;28;20047;-89
2024/01/10 10:05:15;;;;;;;1999.90;999.90;;;;;;;;;;4966873;28;20051;-88
2024/01/10 10:07:45;;;;;;;;;;;;;;;;;;4960544;28;20055;-90
2024/01/10 10:10:12;;;;;;;1999.90;999.90;;;;;;;;;;4968721;28;19922;-88
2024/01/10 10:12:46;;;;;;;1999.90;999.90;;;;;;;;;;4970706;28;20522;-88
2024/01/10 10:15:14;;;;;;;1999.90;999.90;;;;;;;;;;4968120;28;20055;-89
2024/01/10 10:17:46;;;;;;;1999.90;999.90;;;;;;;;;;4975141;28;20103;-89
2024/01/10 10:20:29;;;;;;;1999.90;999.90;;;;;;;;;;4973949;28;20498;-90
2024/01/10 10:23:00;;;;;;;1999.90;999.90;;;;;;;;;;4970405;28;20078;-89
2024/01/10 10:25:28;;;;;;;1999.90;999.90;;;;;;;;;;4974100;28;20059;-89
2024/01/10 10:27:55;;;;;;;1999.90;999.90;;;;;;;;;;4965200;28;20050;-89
2024/01/10 10:30:22;;;;;;;1999.90;999.90;;;;;;;;;;4966449;28;20043;-88
2024/01/10 10:32:48;;;;;;;1999.90;999.90;;;;;;;;;;4968726;28;20520;-89
2024/01/10 10:35:15;;;;;;;1999.90;999.90;;;;;;;;;;4969441;28;20051;-89
2024/01/10 10:37:43;;;;;;;1999.90;999.90;;;;;;;;;;4970287;28;20047;-89
2024/01/10 10:40:11;;;;;;;1999.90;999.90;;;;;;;;;;4965068;28;20055;-90
2024/01/10 10:42:40;;;;;;;1999.90;999.90;;;;;;;;;;4965016;28;20486;-89
2024/01/10 10:45:08;;;;;;;1999.90;999.90;;;;;;;;;;4969460;28;20051;-89
2024/01/10 10:47:38;;;;;;;1999.90;999.90;;;;;;;;;;4964143;28;20061;-91
2024/01/10 10:50:06;;;;;;;1999.90;999.90;;;;;;;;;;4967020;28;20087;-90
2024/01/10 10:52:33;;;;;;;1999.90;999.90;;;;;;;;;;4962300;28;20055;-91
2024/01/10 10:55:03;;;;;;;1999.90;999.90;;;;;;;;;;4974317;28;20050;-91
2024/01/10 10:57:30;;;;;;;1999.90;999.90;;;;;;;;;;4968143;28;20047;-89
2024/01/10 10:59:56;;;;;;;1999.90;999.90;;;;;;;;;;4965451;28;20135;-89
2024/01/10 11:02:24;;;;;;;1999.90;999.90;;;;;;;;;;4963921;28;20130;-91
2024/01/10 11:04:51;;;;;;;1999.90;999.90;;;;;;;;;;4968741;28;20058;-90
2024/01/10 11:07:17;;;;;;;1999.90;999.90;;;;;;;;;;4964600;28;20776;-91
2024/01/10 11:09:45;;;;;;;1999.90;999.90;;;;;;;;;;4963818;28;20051;-89
2024/01/10 11:12:24;;;;;;;1999.90;999.90;;;;;;;;;;4966536;28;20050;-90
2024/01/10 11:15:04;;;;;;;1999.90;999.90;;;;;;;;;;4970164;28;20073;-90
2024/01/10 11:18:06;;;;;;;1999.90;999.90;;;;;;;;;;4968264;28;20054;-91
2024/01/10 11:20:47;;;;;;;1999.90;999.90;;;;;;;;;;4961926;28;20061;-91
2024/01/10 11:23:42;;;;;;;1999.90;999.90;;;;;;;;;;4963605;28;20138;-91
2024/01/10 11:26:09;;;;;;;1999.90;999.90;;;;;;;;;;4956708;28;20047;-90
2024/01/10 11:28:38;;;;;;;1999.90;999.90;;;;;;;;;;4965591;28;20055;-91
2024/01/10 11:31:07;;;;;;;1999.90;999.90;;;;;;;;;;4964954;28;20047;-90
2024/01/10 11:33:36;;;;;;;1999.90;999.90;;;;;;;;;;4967978;28;20058;-90
2024/01/10 11:36:10;;;;;;;1999.90;999.90;;;;;;;;;;4964212;28;20051;-90
2024/01/10 11:38:41;;;;;;;1999.90;999.90;;;;;;;;;;4962966;28;20062;-89
2024/01/10 11:41:11;;;;;;;1999.90;999.90;;;;;;;;;;4963824;28;20150;-91
2024/01/10 11:43:39;;;;;;;1999.90;999.90;;;;;;;;;;4963510;28;20055;-91
2024/01/10 11:46:06;;;;;;;1999.90;999.90;;;;;;;;;;4968960;28;20057;-88
2024/01/10 11:48:33;;;;;;;1999.90;999.90;;;;;;;;;;4960888;28;20047;-90
2024/01/10 11:51:09;;;;;;;1999.90;999.90;;;;;;;;;;4964635;28;20505;-89
2024/01/10 11:53:42;;;;;;;1999.90;999.90;;;;;;;;;;4960670;28;20585;-90
2024/01/10 11:56:15;;;;;;;1999.90;999.90;;;;;;;;;;4966784;28;20105;-89
2024/01/10 11:58:56;;;;;;;1999.90;999.90;;;;;;;;;;4958087;28;20074;-89
2024/01/10 12:01:23;;;;;;;1999.90;999.90;;;;;;;;;;4965355;28;20054;-90
2024/01/10 12:03:52;;;;;;;1999.90;999.90;;;;;;;;;;4965462;28;20047;-90
2024/01/10 12:06:20;;;;;;;1999.90;999.90;;;;;;;;;;4967070;28;20460;-90
2024/01/10 12:08:47;;;;;;;1999.90;999.90;;;;;;;;;;4960902;28;20117;-90
2024/01/10 12:11:15;;;;;;;1999.90;999.90;;;;;;;;;;4962723;28;20079;-89
2024/01/10 12:13:42;;;;;;;1999.90;999.90;;;;;;;;;;4964451;28;20493;-87
2024/01/10 12:16:11;;;;;;;1999.90;999.90;;;;;;;;;;4966172;28;20066;-89
2024/01/10 12:18:38;;;;;;;1999.90;999.90;;;;;;;;;;4963857;28;20054;-91
2024/01/10 12:21:05;;;;;;;1999.90;999.90;;;;;;;;;;4963361;28;20057;-88
2024/01/10 12:23:31;;;;;;;1999.90;999.90;;;;;;;;;;4968989;28;20146;-87
2024/01/10 12:25:58;;;;;;;1999.90;999.90;;;;;;;;;;4968031;28;20047;-88
2024/01/10 12:28:30;;;;;;;1999.90;999.90;;;;;;;;;;4968699;28;20055;-88
2024/01/10 12:30:56;;;;;;;1999.90;999.90;;;;;;;;;;4965516;28;20043;-87
2024/01/10 12:33:24;;;;;;;1999.90;999.90;;;;;;;;;;4968087;28;20065;-88
2024/01/10 12:36:05;;;;;;;1999.90;999.90;;;;;;;;;;4965262;28;20106;-89
2024/01/10 12:38:32;;;;;;;1999.90;999.90;;;;;;;;;;4960404;28;20512;-89
2024/01/10 12:41:00;;;;;;;1999.90;999.90;;;;;;;;;;4968678;28;20133;-89
2024/01/10 12:43:27;;;;;;;1999.90;999.90;;;;;;;;;;4960240;28;20051;-89
2024/01/10 12:46:04;;;;;;;1999.90;999.90;;;;;;;;;;4965118;28;20074;-87
2024/01/10 12:48:33;;;;;;;1999.90;999.90;;;;;;;;;;4966631;28;20453;-90
2024/01/10 12:51:06;;;;;;;1999.90;999.90;;;;;;;;;;4962897;28;20055;-89
2024/01/10 12:53:34;;;;;;;1999.90;999.90;;;;;;;;;;4969933;28;20061;-89
2024/01/10 12:56:01;;;;;;;1999.90;999.90;;;;;;;;;;4966455;28;20051;-90
2024/01/10 12:58:28;;;;;;;1999.90;999.90;;;;;;;;;;4967942;28;20502;-91
2024/01/10 13:00:55;;;;;;;1999.90;999.90;;;;;;;;;;4966123;28;20061;-91
2024/01/10 13:03:22;;;;;;;1999.90;999.90;;;;;;;;;;4964289;28;20062;-92
2024/01/10 13:05:50;;;;;;;1999.90;999.90;;;;;;;;;;4968214;28;20057;-94
2024/01/10 13:08:16;;;;;;;1999.90;999.90;;;;;;;;;;4967913;28;20051;-92
2024/01/10 13:10:43;;;;;;;1999.90;999.90;;;;;;;;;;4967215;28;20137;-93
2024/01/10 13:13:12;;;;;;;1999.90;999.90;;;;;;;;;;4964372;28;20051;-93
2024/01/10 13:15:38;;;;;;;1999.90;999.90;;;;;;;;;;4974251;28;20047;-92
2024/01/10 13:18:06;;;;;;;1999.90;999.90;;;;;;;;;;4969769;28;20051;-93
2024/01/10 13:20:36;;;;;;;1999.90;999.90;;;;;;;;;;4967754;28;20050;-93
2024/01/10 13:23:04;;;;;;;1999.90;999.90;;;;;;;;;;4965642;28;20090;-93
2024/01/10 13:25:30;;;;;;;1999.90;999.90;;;;;;;;;;4960502;28;20077;-91
2024/01/10 13:27:57;;;;;;;1999.90;999.90;;;;;;;;;;4968708;28;20057;-92
2024/01/10 13:30:24;;;;;;;1999.90;999.90;;;;;;;;;;4971788;28;20146;-93
2024/01/10 13:32:50;;;;;;;1999.90;999.90;;;;;;;;;;4969532;28;20065;-93
2024/01/10 13:35:17;;;;;;;1999.90;999.90;;;;;;;;;;4964872;28;20047;-94
2024/01/10 13:37:44;;;;;;;1999.90;999.90;;;;;;;;;;4964190;28;20047;-93
2024/01/10 13:40:13;;;;;;;1999.90;999.90;;;;;;;;;;4964183;28;20051;-93
2024/01/10 13:42:40;;;;;;;1999.90;999.90;;;;;;;;;;4964654;28;20047;-93
2024/01/10 13:45:07;;;;;;;1999.90;999.90;;;;;;;;;;4964495;28;20146;-93